sensor_id;sensor_type;location;lat;lon;timestamp;pressure;altitude;pressure_sealevel;temperature;humidity
42603;BME280;28233;55.748;48.752;2023-04-03T00:01:09;99272.66;;;6.30;77.81
42603;BME280;28233;55.748;48.752;2023-04-03T00:03:12;99274.59;;;6.29;77.70
42603;BME280;28233;55.748;48.752;2023-04-03T00:05:15;99271.84;;;6.29;77.60
42603;BME280;28233;55.748;48.752;2023-04-03T00:07:18;99272.97;;;6.28;77.61
42603;BME280;28233;55.748;48.752;2023-04-03T00:09:20;99272.97;;;6.28;77.71
42603;BME280;28233;55.748;48.752;2023-04-03T00:11:23;99278.72;;;6.27;77.40
42603;BME280;28233;55.748;48.752;2023-04-03T00:13:26;99277.91;;;6.26;77.67
42603;BME280;28233;55.748;48.752;2023-04-03T00:15:29;99272.47;;;6.26;77.67
42603;BME280;28233;55.748;48.752;2023-04-03T00:17:31;99268.09;;;6.25;77.54
42603;BME280;28233;55.748;48.752;2023-04-03T00:19:34;99271.66;;;6.26;77.27
42603;BME280;28233;55.748;48.752;2023-04-03T00:21:38;99274.69;;;6.24;77.33
42603;BME280;28233;55.748;48.752;2023-04-03T00:23:41;99268.41;;;6.24;77.09
42603;BME280;28233;55.748;48.752;2023-04-03T00:25:44;99270.03;;;6.25;77.29
42603;BME280;28233;55.748;48.752;2023-04-03T00:27:46;99259.81;;;6.17;77.35
42603;BME280;28233;55.748;48.752;2023-04-03T00:29:49;99265.38;;;6.25;77.13
42603;BME280;28233;55.748;48.752;2023-04-03T00:31:52;99261.84;;;6.25;77.36
42603;BME280;28233;55.748;48.752;2023-04-03T00:33:55;99261.84;;;6.25;76.87
42603;BME280;28233;55.748;48.752;2023-04-03T00:35:57;99263.47;;;6.26;76.84
42603;BME280;28233;55.748;48.752;2023-04-03T00:38:00;99264.28;;;6.26;76.56
42603;BME280;28233;55.748;48.752;2023-04-03T00:40:04;99265.59;;;6.29;76.53
42603;BME280;28233;55.748;48.752;2023-04-03T00:42:07;99259.63;;;6.27;76.28
42603;BME280;28233;55.748;48.752;2023-04-03T00:46:31;99267.91;;;6.22;76.41
42603;BME280;28233;55.748;48.752;2023-04-03T00:50:40;99257.38;;;6.15;76.49
42603;BME280;28233;55.748;48.752;2023-04-03T00:52:44;99264.13;;;6.18;76.53
42603;BME280;28233;55.748;48.752;2023-04-03T00:54:50;99258.97;;;6.16;76.35
42603;BME280;28233;55.748;48.752;2023-04-03T00:56:55;99266.69;;;6.14;76.16
42603;BME280;28233;55.748;48.752;2023-04-03T00:59:27;99265.34;;;6.11;76.51
42603;BME280;28233;55.748;48.752;2023-04-03T01:01:32;99260.78;;;6.07;76.68
42603;BME280;28233;55.748;48.752;2023-04-03T01:03:35;99264.31;;;6.07;76.68
42603;BME280;28233;55.748;48.752;2023-04-03T01:05:39;99269.25;;;6.05;76.79
42603;BME280;28233;55.748;48.752;2023-04-03T01:07:43;99260.84;;;6.02;77.17
42603;BME280;28233;55.748;48.752;2023-04-03T01:09:48;99260.66;;;5.98;76.73
42603;BME280;28233;55.748;48.752;2023-04-03T01:11:52;99262.56;;;5.98;77.00
42603;BME280;28233;55.748;48.752;2023-04-03T01:13:55;99268.03;;;5.98;77.05
42603;BME280;28233;55.748;48.752;2023-04-03T01:16:03;99264.78;;;5.96;77.18
42603;BME280;28233;55.748;48.752;2023-04-03T01:18:10;99261.81;;;5.92;77.25
42603;BME280;28233;55.748;48.752;2023-04-03T01:22:46;99264.09;;;5.85;76.82
42603;BME280;28233;55.748;48.752;2023-04-03T01:24:56;99264.69;;;5.82;77.17
42603;BME280;28233;55.748;48.752;2023-04-03T01:27:01;99258.50;;;5.76;77.11
42603;BME280;28233;55.748;48.752;2023-04-03T01:29:05;99261.22;;;5.76;76.88
42603;BME280;28233;55.748;48.752;2023-04-03T01:33:25;99262.44;;;5.70;77.31
42603;BME280;28233;55.748;48.752;2023-04-03T01:35:28;99263.81;;;5.67;77.63
42603;BME280;28233;55.748;48.752;2023-04-03T01:37:31;99262.88;;;5.58;77.66
42603;BME280;28233;55.748;48.752;2023-04-03T01:39:34;99266.47;;;5.54;77.48
42603;BME280;28233;55.748;48.752;2023-04-03T01:41:37;99267.28;;;5.54;78.04
42603;BME280;28233;55.748;48.752;2023-04-03T01:43:39;99279.59;;;5.51;78.03
42603;BME280;28233;55.748;48.752;2023-04-03T01:45:42;99275.00;;;5.47;78.34
42603;BME280;28233;55.748;48.752;2023-04-03T01:47:45;99280.53;;;5.42;78.44
42603;BME280;28233;55.748;48.752;2023-04-03T01:49:48;99276.25;;;5.36;78.47
42603;BME280;28233;55.748;48.752;2023-04-03T01:51:50;99278.44;;;5.34;78.89
42603;BME280;28233;55.748;48.752;2023-04-03T01:53:53;99281.78;;;5.30;79.01
42603;BME280;28233;55.748;48.752;2023-04-03T01:55:56;99272.34;;;5.23;79.20
42603;BME280;28233;55.748;48.752;2023-04-03T01:57:58;99273.16;;;5.23;79.07
42603;BME280;28233;55.748;48.752;2023-04-03T02:00:01;99274.81;;;5.19;79.44
42603;BME280;28233;55.748;48.752;2023-04-03T02:02:05;99273.22;;;5.18;79.61
42603;BME280;28233;55.748;48.752;2023-04-03T02:04:08;99266.44;;;5.16;79.89
42603;BME280;28233;55.748;48.752;2023-04-03T02:06:11;99269.44;;;5.14;79.48
42603;BME280;28233;55.748;48.752;2023-04-03T02:08:14;99266.50;;;5.11;79.63
42603;BME280;28233;55.748;48.752;2023-04-03T02:10:17;99267.06;;;5.07;79.84
42603;BME280;28233;55.748;48.752;2023-04-03T02:12:19;99273.91;;;5.05;79.92
42603;BME280;28233;55.748;48.752;2023-04-03T02:14:22;99259.56;;;4.99;79.97
42603;BME280;28233;55.748;48.752;2023-04-03T02:16:45;99263.69;;;4.97;80.17
42603;BME280;28233;55.748;48.752;2023-04-03T02:18:48;99262.63;;;4.93;80.26
42603;BME280;28233;55.748;48.752;2023-04-03T02:20:51;99268.38;;;4.91;79.95
42603;BME280;28233;55.748;48.752;2023-04-03T02:22:53;99265.94;;;4.90;80.04
42603;BME280;28233;55.748;48.752;2023-04-03T02:24:56;99266.81;;;4.85;80.57
42603;BME280;28233;55.748;48.752;2023-04-03T02:26:59;99265.19;;;4.84;80.20
42603;BME280;28233;55.748;48.752;2023-04-03T02:29:02;99265.78;;;4.81;80.54
42603;BME280;28233;55.748;48.752;2023-04-03T02:31:07;99266.34;;;4.78;80.86
42603;BME280;28233;55.748;48.752;2023-04-03T02:33:10;99270.97;;;4.77;80.79
42603;BME280;28233;55.748;48.752;2023-04-03T02:35:13;99265.03;;;4.75;80.95
42603;BME280;28233;55.748;48.752;2023-04-03T02:37:16;99263.69;;;4.73;80.69
42603;BME280;28233;55.748;48.752;2023-04-03T02:39:18;99261.47;;;4.75;80.73
42603;BME280;28233;55.748;48.752;2023-04-03T02:41:21;99260.97;;;4.73;81.21
42603;BME280;28233;55.748;48.752;2023-04-03T02:43:24;99262.06;;;4.72;81.29
42603;BME280;28233;55.748;48.752;2023-04-03T02:45:27;99271.88;;;4.73;81.21
42603;BME280;28233;55.748;48.752;2023-04-03T02:47:29;99265.31;;;4.74;81.04
42603;BME280;28233;55.748;48.752;2023-04-03T02:49:32;99262.59;;;4.74;80.99
42603;BME280;28233;55.748;48.752;2023-04-03T02:51:35;99263.19;;;4.71;80.72
42603;BME280;28233;55.748;48.752;2023-04-03T02:53:37;99262.31;;;4.75;80.55
42603;BME280;28233;55.748;48.752;2023-04-03T02:55:40;99257.94;;;4.74;80.97
42603;BME280;28233;55.748;48.752;2023-04-03T02:57:43;99269.09;;;4.78;80.52
42603;BME280;28233;55.748;48.752;2023-04-03T02:59:45;99254.94;;;4.76;80.60
42603;BME280;28233;55.748;48.752;2023-04-03T03:01:48;99257.88;;;4.79;80.61
42603;BME280;28233;55.748;48.752;2023-04-03T03:03:51;99255.41;;;4.83;80.88
42603;BME280;28233;55.748;48.752;2023-04-03T03:06:04;99263.78;;;4.86;80.52
42603;BME280;28233;55.748;48.752;2023-04-03T03:08:07;99252.34;;;4.90;80.01
42603;BME280;28233;55.748;48.752;2023-04-03T03:10:10;99256.38;;;4.92;80.07
42603;BME280;28233;55.748;48.752;2023-04-03T03:12:13;99255.53;;;4.97;80.03
42603;BME280;28233;55.748;48.752;2023-04-03T03:14:17;99256.25;;;5.02;79.53
42603;BME280;28233;55.748;48.752;2023-04-03T03:16:19;99247.22;;;5.07;79.53
42603;BME280;28233;55.748;48.752;2023-04-03T03:18:23;99255.03;;;5.14;79.42
42603;BME280;28233;55.748;48.752;2023-04-03T03:20:25;99260.41;;;5.19;79.58
42603;BME280;28233;55.748;48.752;2023-04-03T03:22:28;99258.72;;;5.23;79.43
42603;BME280;28233;55.748;48.752;2023-04-03T03:24:33;99269.84;;;5.26;79.00
42603;BME280;28233;55.748;48.752;2023-04-03T03:26:36;99258.13;;;5.26;78.73
42603;BME280;28233;55.748;48.752;2023-04-03T03:28:40;99262.69;;;5.30;78.75
42603;BME280;28233;55.748;48.752;2023-04-03T03:30:43;99275.97;;;5.37;78.35
42603;BME280;28233;55.748;48.752;2023-04-03T03:32:48;99276.50;;;5.39;78.20
42603;BME280;28233;55.748;48.752;2023-04-03T03:34:51;99276.69;;;5.43;77.96
42603;BME280;28233;55.748;48.752;2023-04-03T03:36:54;99270.38;;;5.47;77.45
42603;BME280;28233;55.748;48.752;2023-04-03T03:38:57;99272.00;;;5.48;77.13
42603;BME280;28233;55.748;48.752;2023-04-03T03:41:00;99279.00;;;5.55;76.53
42603;BME280;28233;55.748;48.752;2023-04-03T03:43:03;99278.41;;;5.58;76.01
42603;BME280;28233;55.748;48.752;2023-04-03T03:45:06;99282.16;;;5.62;75.86
42603;BME280;28233;55.748;48.752;2023-04-03T03:47:09;99281.59;;;5.65;75.59
42603;BME280;28233;55.748;48.752;2023-04-03T03:49:13;99288.03;;;5.69;75.42
42603;BME280;28233;55.748;48.752;2023-04-03T03:51:15;99284.16;;;5.75;75.24
42603;BME280;28233;55.748;48.752;2023-04-03T03:53:18;99270.81;;;5.73;74.70
42603;BME280;28233;55.748;48.752;2023-04-03T03:55:22;99276.41;;;5.82;74.40
42603;BME280;28233;55.748;48.752;2023-04-03T03:57:24;99276.31;;;5.87;74.05
42603;BME280;28233;55.748;48.752;2023-04-03T03:59:29;99278.16;;;5.92;74.02
42603;BME280;28233;55.748;48.752;2023-04-03T04:01:32;99276.50;;;5.96;73.92
42603;BME280;28233;55.748;48.752;2023-04-03T04:03:35;99263.56;;;6.02;73.95
42603;BME280;28233;55.748;48.752;2023-04-03T04:05:38;99263.53;;;6.07;72.93
42603;BME280;28233;55.748;48.752;2023-04-03T04:07:41;99271.63;;;6.12;72.97
42603;BME280;28233;55.748;48.752;2023-04-03T04:09:44;99280.50;;;6.18;72.44
42603;BME280;28233;55.748;48.752;2023-04-03T04:11:47;99274.44;;;6.21;71.53
42603;BME280;28233;55.748;48.752;2023-04-03T04:13:49;99273.88;;;6.24;70.90
42603;BME280;28233;55.748;48.752;2023-04-03T04:15:52;99272.66;;;6.30;71.00
42603;BME280;28233;55.748;48.752;2023-04-03T04:17:55;99276.69;;;6.32;70.42
42603;BME280;28233;55.748;48.752;2023-04-03T04:19:58;99276.63;;;6.38;70.50
42603;BME280;28233;55.748;48.752;2023-04-03T04:22:00;99284.41;;;6.44;69.93
42603;BME280;28233;55.748;48.752;2023-04-03T04:24:03;99278.06;;;6.49;69.58
42603;BME280;28233;55.748;48.752;2023-04-03T04:26:06;99276.34;;;6.53;69.18
42603;BME280;28233;55.748;48.752;2023-04-03T04:28:08;99284.44;;;6.58;68.73
42603;BME280;28233;55.748;48.752;2023-04-03T04:30:12;99277.56;;;6.61;67.89
42603;BME280;28233;55.748;48.752;2023-04-03T04:32:15;99276.88;;;6.69;67.45
42603;BME280;28233;55.748;48.752;2023-04-03T04:34:17;99274.06;;;6.74;67.16
42603;BME280;28233;55.748;48.752;2023-04-03T04:36:20;99272.53;;;6.82;67.31
42603;BME280;28233;55.748;48.752;2023-04-03T04:38:24;99266.16;;;6.86;67.01
42603;BME280;28233;55.748;48.752;2023-04-03T04:40:27;99274.25;;;6.91;66.81
42603;BME280;28233;55.748;48.752;2023-04-03T04:42:30;99275.66;;;7.03;65.99
42603;BME280;28233;55.748;48.752;2023-04-03T04:44:33;99277.00;;;7.05;65.56
42603;BME280;28233;55.748;48.752;2023-04-03T04:46:35;99284.78;;;7.12;65.57
42603;BME280;28233;55.748;48.752;2023-04-03T04:48:38;99278.22;;;7.13;65.21
42603;BME280;28233;55.748;48.752;2023-04-03T04:50:41;99284.66;;;7.17;64.69
42603;BME280;28233;55.748;48.752;2023-04-03T04:52:43;99281.53;;;7.24;64.53
42603;BME280;28233;55.748;48.752;2023-04-03T04:54:46;99283.69;;;7.27;64.49
42603;BME280;28233;55.748;48.752;2023-04-03T04:56:49;99268.25;;;7.31;64.13
42603;BME280;28233;55.748;48.752;2023-04-03T04:58:51;99283.44;;;7.37;64.12
42603;BME280;28233;55.748;48.752;2023-04-03T05:01:01;99271.88;;;7.40;63.44
42603;BME280;28233;55.748;48.752;2023-04-03T05:03:04;99284.84;;;7.48;63.78
42603;BME280;28233;55.748;48.752;2023-04-03T05:05:08;99285.53;;;7.54;63.95
42603;BME280;28233;55.748;48.752;2023-04-03T05:07:11;99288.34;;;7.62;64.03
42603;BME280;28233;55.748;48.752;2023-04-03T05:09:14;99280.53;;;7.70;63.81
42603;BME280;28233;55.748;48.752;2023-04-03T05:11:17;99280.13;;;7.76;63.26
42603;BME280;28233;55.748;48.752;2023-04-03T05:13:20;99285.13;;;7.83;62.59
42603;BME280;28233;55.748;48.752;2023-04-03T05:15:23;99284.72;;;7.90;62.26
42603;BME280;28233;55.748;48.752;2023-04-03T05:17:26;99287.03;;;7.96;61.85
42603;BME280;28233;55.748;48.752;2023-04-03T05:19:28;99288.53;;;8.02;61.67
42603;BME280;28233;55.748;48.752;2023-04-03T05:21:31;99284.38;;;8.05;61.41
42603;BME280;28233;55.748;48.752;2023-04-03T05:23:34;99289.22;;;8.08;61.49
42603;BME280;28233;55.748;48.752;2023-04-03T05:25:38;99287.34;;;8.17;61.45
42603;BME280;28233;55.748;48.752;2023-04-03T05:27:41;99280.31;;;8.25;61.11
42603;BME280;28233;55.748;48.752;2023-04-03T05:29:43;99280.66;;;8.32;60.83
42603;BME280;28233;55.748;48.752;2023-04-03T05:31:49;99284.91;;;8.38;61.03
42603;BME280;28233;55.748;48.752;2023-04-03T05:33:52;99278.69;;;8.46;61.11
42603;BME280;28233;55.748;48.752;2023-04-03T05:35:54;99277.44;;;8.53;60.64
42603;BME280;28233;55.748;48.752;2023-04-03T05:37:57;99289.06;;;8.58;59.77
42603;BME280;28233;55.748;48.752;2023-04-03T05:40:00;99280.25;;;8.61;59.56
42603;BME280;28233;55.748;48.752;2023-04-03T05:42:04;99286.38;;;8.67;59.20
42603;BME280;28233;55.748;48.752;2023-04-03T05:44:07;99279.16;;;8.71;58.13
42603;BME280;28233;55.748;48.752;2023-04-03T05:46:15;99282.41;;;8.73;58.52
42603;BME280;28233;55.748;48.752;2023-04-03T05:48:18;99285.03;;;8.87;58.46
42603;BME280;28233;55.748;48.752;2023-04-03T05:50:22;99289.06;;;8.89;58.14
42603;BME280;28233;55.748;48.752;2023-04-03T05:52:33;99281.00;;;8.93;57.93
42603;BME280;28233;55.748;48.752;2023-04-03T05:54:37;99289.91;;;8.99;57.48
42603;BME280;28233;55.748;48.752;2023-04-03T05:56:40;99296.25;;;9.08;57.26
42603;BME280;28233;55.748;48.752;2023-04-03T05:58:44;99286.41;;;9.16;57.34
42603;BME280;28233;55.748;48.752;2023-04-03T06:00:47;99285.47;;;9.20;56.19
42603;BME280;28233;55.748;48.752;2023-04-03T06:02:50;99281.94;;;9.20;56.37
42603;BME280;28233;55.748;48.752;2023-04-03T06:04:53;99293.38;;;9.30;56.87
42603;BME280;28233;55.748;48.752;2023-04-03T06:06:57;99286.78;;;9.40;55.62
42603;BME280;28233;55.748;48.752;2023-04-03T06:09:00;99290.69;;;9.48;55.32
42603;BME280;28233;55.748;48.752;2023-04-03T06:11:05;99293.59;;;9.51;54.96
42603;BME280;28233;55.748;48.752;2023-04-03T06:13:08;99291.53;;;9.57;55.25
42603;BME280;28233;55.748;48.752;2023-04-03T06:15:10;99285.88;;;9.62;54.23
42603;BME280;28233;55.748;48.752;2023-04-03T06:17:15;99293.28;;;9.70;53.93
42603;BME280;28233;55.748;48.752;2023-04-03T06:19:18;99284.75;;;9.72;53.85
42603;BME280;28233;55.748;48.752;2023-04-03T06:21:21;99281.34;;;9.75;54.41
42603;BME280;28233;55.748;48.752;2023-04-03T06:23:23;99296.84;;;9.80;53.88
42603;BME280;28233;55.748;48.752;2023-04-03T06:25:26;99289.13;;;9.82;54.04
42603;BME280;28233;55.748;48.752;2023-04-03T06:27:29;99285.88;;;9.88;53.42
42603;BME280;28233;55.748;48.752;2023-04-03T06:29:32;99285.22;;;9.91;52.85
42603;BME280;28233;55.748;48.752;2023-04-03T06:31:35;99298.00;;;9.96;52.83
42603;BME280;28233;55.748;48.752;2023-04-03T06:33:42;99291.03;;;9.99;52.96
42603;BME280;28233;55.748;48.752;2023-04-03T06:35:44;99280.25;;;10.02;53.78
42603;BME280;28233;55.748;48.752;2023-04-03T06:37:48;99281.03;;;10.11;53.35
42603;BME280;28233;55.748;48.752;2023-04-03T06:39:50;99277.16;;;10.21;52.79
42603;BME280;28233;55.748;48.752;2023-04-03T06:41:53;99286.69;;;10.24;52.14
42603;BME280;28233;55.748;48.752;2023-04-03T06:43:56;99285.72;;;10.28;51.87
42603;BME280;28233;55.748;48.752;2023-04-03T06:46:00;99285.56;;;10.33;51.97
42603;BME280;28233;55.748;48.752;2023-04-03T06:48:03;99286.66;;;10.41;51.75
42603;BME280;28233;55.748;48.752;2023-04-03T06:50:06;99283.59;;;10.43;51.48
42603;BME280;28233;55.748;48.752;2023-04-03T06:52:09;99299.56;;;10.58;51.79
42603;BME280;28233;55.748;48.752;2023-04-03T06:54:14;99284.88;;;10.54;50.76
42603;BME280;28233;55.748;48.752;2023-04-03T06:56:17;99294.53;;;10.69;51.50
42603;BME280;28233;55.748;48.752;2023-04-03T06:58:20;99301.28;;;10.80;51.78
42603;BME280;28233;55.748;48.752;2023-04-03T07:00:25;99299.63;;;10.88;50.82
42603;BME280;28233;55.748;48.752;2023-04-03T07:02:28;99289.44;;;10.88;50.00
42603;BME280;28233;55.748;48.752;2023-04-03T07:04:31;99302.16;;;11.02;50.73
42603;BME280;28233;55.748;48.752;2023-04-03T07:06:34;99299.88;;;11.12;50.13
42603;BME280;28233;55.748;48.752;2023-04-03T07:08:37;99297.22;;;11.25;50.53
42603;BME280;28233;55.748;48.752;2023-04-03T07:10:40;99300.72;;;11.34;50.10
42603;BME280;28233;55.748;48.752;2023-04-03T07:12:43;99300.19;;;11.40;49.10
42603;BME280;28233;55.748;48.752;2023-04-03T07:14:46;99299.84;;;11.42;48.62
42603;BME280;28233;55.748;48.752;2023-04-03T07:16:49;99300.00;;;11.46;48.88
42603;BME280;28233;55.748;48.752;2023-04-03T07:18:52;99295.25;;;11.55;49.53
42603;BME280;28233;55.748;48.752;2023-04-03T07:20:54;99288.75;;;11.59;48.63
42603;BME280;28233;55.748;48.752;2023-04-03T07:22:58;99305.53;;;11.67;49.38
42603;BME280;28233;55.748;48.752;2023-04-03T07:25:03;99290.91;;;11.75;48.29
42603;BME280;28233;55.748;48.752;2023-04-03T07:27:05;99299.09;;;11.83;48.66
42603;BME280;28233;55.748;48.752;2023-04-03T07:29:10;99294.38;;;11.93;47.75
42603;BME280;28233;55.748;48.752;2023-04-03T07:31:13;99307.47;;;11.96;47.40
42603;BME280;28233;55.748;48.752;2023-04-03T07:33:19;99306.13;;;12.02;47.00
42603;BME280;28233;55.748;48.752;2023-04-03T07:35:22;99295.00;;;12.11;47.06
42603;BME280;28233;55.748;48.752;2023-04-03T07:37:24;99307.22;;;12.22;47.44
42603;BME280;28233;55.748;48.752;2023-04-03T07:39:27;99298.66;;;12.23;46.39
42603;BME280;28233;55.748;48.752;2023-04-03T07:41:30;99302.19;;;12.24;46.64
42603;BME280;28233;55.748;48.752;2023-04-03T07:43:33;99301.88;;;12.25;46.96
42603;BME280;28233;55.748;48.752;2023-04-03T07:45:36;99308.44;;;12.33;47.00
42603;BME280;28233;55.748;48.752;2023-04-03T07:47:39;99304.44;;;12.43;47.36
42603;BME280;28233;55.748;48.752;2023-04-03T07:49:42;99304.94;;;12.57;47.37
42603;BME280;28233;55.748;48.752;2023-04-03T07:51:46;99299.00;;;12.67;46.76
42603;BME280;28233;55.748;48.752;2023-04-03T07:53:48;99302.34;;;12.73;46.02
42603;BME280;28233;55.748;48.752;2023-04-03T07:55:51;99297.63;;;12.74;45.08
42603;BME280;28233;55.748;48.752;2023-04-03T07:57:57;99300.41;;;12.74;45.45
42603;BME280;28233;55.748;48.752;2023-04-03T08:00:01;99299.94;;;12.84;45.44
42603;BME280;28233;55.748;48.752;2023-04-03T08:02:05;99298.91;;;12.88;45.37
42603;BME280;28233;55.748;48.752;2023-04-03T08:04:08;99302.38;;;12.98;45.22
42603;BME280;28233;55.748;48.752;2023-04-03T08:06:11;99298.59;;;13.02;44.78
42603;BME280;28233;55.748;48.752;2023-04-03T08:08:22;99306.44;;;13.13;45.21
42603;BME280;28233;55.748;48.752;2023-04-03T08:10:25;99307.13;;;13.22;44.96
42603;BME280;28233;55.748;48.752;2023-04-03T08:12:28;99303.94;;;13.32;44.64
42603;BME280;28233;55.748;48.752;2023-04-03T08:14:32;99302.91;;;13.37;44.18
42603;BME280;28233;55.748;48.752;2023-04-03T08:16:36;99303.22;;;13.35;43.95
42603;BME280;28233;55.748;48.752;2023-04-03T08:18:39;99307.03;;;13.43;43.75
42603;BME280;28233;55.748;48.752;2023-04-03T08:20:43;99313.38;;;13.43;43.21
42603;BME280;28233;55.748;48.752;2023-04-03T08:22:45;99293.59;;;13.41;42.63
42603;BME280;28233;55.748;48.752;2023-04-03T08:24:48;99303.13;;;13.44;43.04
42603;BME280;28233;55.748;48.752;2023-04-03T08:27:00;99305.31;;;13.50;43.47
42603;BME280;28233;55.748;48.752;2023-04-03T08:29:03;99291.81;;;13.61;44.21
42603;BME280;28233;55.748;48.752;2023-04-03T08:31:09;99294.00;;;13.68;43.44
42603;BME280;28233;55.748;48.752;2023-04-03T08:33:13;99299.72;;;13.75;42.13
42603;BME280;28233;55.748;48.752;2023-04-03T08:35:16;99297.56;;;13.81;41.80
42603;BME280;28233;55.748;48.752;2023-04-03T08:37:18;99303.63;;;13.86;41.27
42603;BME280;28233;55.748;48.752;2023-04-03T08:39:22;99299.03;;;13.90;41.54
42603;BME280;28233;55.748;48.752;2023-04-03T08:41:37;99306.59;;;13.93;40.96
42603;BME280;28233;55.748;48.752;2023-04-03T08:44:23;99301.28;;;14.01;41.05
42603;BME280;28233;55.748;48.752;2023-04-03T08:48:59;99298.25;;;14.18;41.03
42603;BME280;28233;55.748;48.752;2023-04-03T08:51:04;99304.53;;;14.31;40.59
42603;BME280;28233;55.748;48.752;2023-04-03T08:53:14;99301.94;;;14.38;40.23
42603;BME280;28233;55.748;48.752;2023-04-03T08:55:54;99306.44;;;14.43;39.78
42603;BME280;28233;55.748;48.752;2023-04-03T08:58:03;99305.38;;;14.47;39.74
42603;BME280;28233;55.748;48.752;2023-04-03T09:00:20;99303.84;;;14.50;39.86
42603;BME280;28233;55.748;48.752;2023-04-03T09:02:48;99305.69;;;14.58;39.13
42603;BME280;28233;55.748;48.752;2023-04-03T09:04:52;99302.56;;;14.59;38.85
42603;BME280;28233;55.748;48.752;2023-04-03T09:07:02;99304.59;;;14.63;38.91
42603;BME280;28233;55.748;48.752;2023-04-03T09:09:25;99303.56;;;14.67;38.37
42603;BME280;28233;55.748;48.752;2023-04-03T09:16:14;99303.22;;;14.85;38.62
42603;BME280;28233;55.748;48.752;2023-04-03T09:18:30;99300.09;;;15.02;38.36
42603;BME280;28233;55.748;48.752;2023-04-03T09:23:34;99285.66;;;15.25;36.12
42603;BME280;28233;55.748;48.752;2023-04-03T09:25:39;99290.00;;;15.41;35.72
42603;BME280;28233;55.748;48.752;2023-04-03T09:27:42;99306.78;;;15.49;35.02
42603;BME280;28233;55.748;48.752;2023-04-03T09:29:45;99299.34;;;15.53;35.19
42603;BME280;28233;55.748;48.752;2023-04-03T09:31:52;99305.50;;;15.62;35.31
42603;BME280;28233;55.748;48.752;2023-04-03T09:33:59;99303.59;;;15.66;35.49
42603;BME280;28233;55.748;48.752;2023-04-03T09:36:04;99300.91;;;15.70;34.28
42603;BME280;28233;55.748;48.752;2023-04-03T09:42:30;99307.31;;;15.90;33.97
42603;BME280;28233;55.748;48.752;2023-04-03T09:44:36;99305.44;;;15.94;34.31
42603;BME280;28233;55.748;48.752;2023-04-03T09:46:39;99313.53;;;16.02;34.37
42603;BME280;28233;55.748;48.752;2023-04-03T09:49:00;99314.56;;;16.14;33.44
42603;BME280;28233;55.748;48.752;2023-04-03T09:51:15;99305.81;;;16.12;31.66
42603;BME280;28233;55.748;48.752;2023-04-03T09:53:47;99312.66;;;16.18;30.02
42603;BME280;28233;55.748;48.752;2023-04-03T09:55:50;99301.88;;;16.13;29.77
42603;BME280;28233;55.748;48.752;2023-04-03T09:57:59;99315.16;;;16.23;30.76
42603;BME280;28233;55.748;48.752;2023-04-03T10:00:04;99316.09;;;16.31;31.22
42603;BME280;28233;55.748;48.752;2023-04-03T10:02:35;99320.13;;;16.33;29.70
42603;BME280;28233;55.748;48.752;2023-04-03T10:04:40;99321.28;;;16.32;31.13
42603;BME280;28233;55.748;48.752;2023-04-03T10:06:52;99323.78;;;16.37;30.17
42603;BME280;28233;55.748;48.752;2023-04-03T10:08:59;99311.59;;;16.42;30.81
42603;BME280;28233;55.748;48.752;2023-04-03T10:11:13;99311.28;;;16.47;29.83
42603;BME280;28233;55.748;48.752;2023-04-03T10:13:19;99310.47;;;16.46;29.76
42603;BME280;28233;55.748;48.752;2023-04-03T10:15:25;99313.19;;;16.43;28.92
42603;BME280;28233;55.748;48.752;2023-04-03T10:37:53;99319.94;;;16.84;27.65
42603;BME280;28233;55.748;48.752;2023-04-03T10:40:27;99312.84;;;16.87;27.05
42603;BME280;28233;55.748;48.752;2023-04-03T10:42:42;99308.97;;;16.92;26.65
42603;BME280;28233;55.748;48.752;2023-04-03T10:45:01;99307.06;;;16.96;28.50
42603;BME280;28233;55.748;48.752;2023-04-03T10:47:41;99312.97;;;16.94;26.75
42603;BME280;28233;55.748;48.752;2023-04-03T10:50:08;99310.00;;;17.06;28.58
42603;BME280;28233;55.748;48.752;2023-04-03T10:52:37;99308.16;;;17.14;27.77
42603;BME280;28233;55.748;48.752;2023-04-03T10:55:02;99314.75;;;17.06;25.20
42603;BME280;28233;55.748;48.752;2023-04-03T10:57:10;99307.75;;;17.12;26.71
42603;BME280;28233;55.748;48.752;2023-04-03T11:01:21;99313.63;;;17.33;27.22
42603;BME280;28233;55.748;48.752;2023-04-03T11:03:34;99308.19;;;17.41;26.37
42603;BME280;28233;55.748;48.752;2023-04-03T11:05:42;99309.16;;;17.52;26.50
42603;BME280;28233;55.748;48.752;2023-04-03T11:07:49;99311.94;;;17.52;25.87
42603;BME280;28233;55.748;48.752;2023-04-03T11:10:02;99311.19;;;17.55;26.72
42603;BME280;28233;55.748;48.752;2023-04-03T11:12:38;99307.72;;;17.62;25.04
42603;BME280;28233;55.748;48.752;2023-04-03T11:14:43;99300.88;;;17.56;24.79
42603;BME280;28233;55.748;48.752;2023-04-03T11:16:49;99302.53;;;17.60;26.92
42603;BME280;28233;55.748;48.752;2023-04-03T11:19:11;99300.09;;;17.82;26.36
42603;BME280;28233;55.748;48.752;2023-04-03T11:21:42;99301.94;;;18.01;26.35
42603;BME280;28233;55.748;48.752;2023-04-03T11:23:48;99304.34;;;18.02;25.81
42603;BME280;28233;55.748;48.752;2023-04-03T11:25:54;99308.25;;;17.98;27.31
42603;BME280;28233;55.748;48.752;2023-04-03T11:28:01;99298.38;;;18.04;25.20
42603;BME280;28233;55.748;48.752;2023-04-03T11:30:07;99305.19;;;18.06;27.08
42603;BME280;28233;55.748;48.752;2023-04-03T11:32:41;99304.44;;;18.09;26.61
42603;BME280;28233;55.748;48.752;2023-04-03T11:34:49;99306.97;;;18.22;24.73
42603;BME280;28233;55.748;48.752;2023-04-03T11:36:58;99304.16;;;18.18;25.52
42603;BME280;28233;55.748;48.752;2023-04-03T11:41:32;99303.63;;;18.39;23.98
42603;BME280;28233;55.748;48.752;2023-04-03T11:43:39;99313.97;;;18.42;24.21
42603;BME280;28233;55.748;48.752;2023-04-03T11:47:58;99299.00;;;18.54;26.39
42603;BME280;28233;55.748;48.752;2023-04-03T11:54:49;99307.22;;;18.77;24.69
42603;BME280;28233;55.748;48.752;2023-04-03T11:56:52;99301.72;;;18.84;26.38